Time;durP1;ratioP1;P1;durP2;ratioP2;P2;SDS_P1;SDS_P2;PMS_P1;PMS_P2;Temp;Humidity;BMP_temperature;BMP_pressure;BME280_temperature;BME280_humidity;BME280_pressure;Samples;Min_cycle;Max_cycle;Signal;HPM_P1;HPM_P2
2021/03/21 00:01:45;;;;;;;6.03;4.23;;;2.20;51.80;;;;;;5045544;28;20423;-85
2021/03/21 00:04:13;;;;;;;4.47;3.13;;;2.10;51.70;;;;;;5046404;28;20383;-84
2021/03/21 00:06:39;;;;;;;5.67;3.63;;;2.10;51.90;;;;;;5042167;28;20048;-84
2021/03/21 00:09:05;;;;;;;5.73;3.67;;;2.10;51.80;;;;;;5034910;28;20029;-85
2021/03/21 00:11:31;;;;;;;4.77;3.33;;;2.10;51.30;;;;;;5044551;28;20053;-85
2021/03/21 00:13:58;;;;;;;5.07;3.43;;;2.00;51.30;;;;;;5041959;28;20036;-84
2021/03/21 00:16:24;;;;;;;4.43;3.60;;;2.00;51.20;;;;;;5042474;28;20044;-84
2021/03/21 00:18:50;;;;;;;6.13;3.53;;;2.00;51.00;;;;;;5044806;28;20033;-85
2021/03/21 00:21:16;;;;;;;5.70;3.70;;;2.00;51.00;;;;;;5049123;28;20473;-85
2021/03/21 00:23:42;;;;;;;5.07;3.47;;;1.90;50.90;;;;;;5039799;28;20341;-85
2021/03/21 00:26:09;;;;;;;5.57;3.80;;;1.90;51.00;;;;;;5038537;28;20688;-85
2021/03/21 00:28:37;;;;;;;5.47;3.60;;;1.80;51.00;;;;;;5040829;28;20036;-85
2021/03/21 00:31:04;;;;;;;8.40;3.80;;;1.90;51.10;;;;;;5032693;28;20036;-85
2021/03/21 00:33:34;;;;;;;6.97;3.93;;;1.80;51.20;;;;;;5038356;28;20287;-85
2021/03/21 00:36:01;;;;;;;6.53;4.03;;;1.90;51.20;;;;;;5042108;28;20056;-85
2021/03/21 00:38:32;;;;;;;5.00;3.93;;;1.80;51.00;;;;;;5043048;28;20287;-85
2021/03/21 00:40:58;;;;;;;4.47;3.67;;;1.70;51.00;;;;;;5052756;28;20037;-85
2021/03/21 00:43:24;;;;;;;7.80;3.60;;;1.70;51.00;;;;;;5041708;28;20036;-85
2021/03/21 00:45:50;;;;;;;5.83;3.87;;;1.70;51.10;;;;;;5045288;28;20029;-85
2021/03/21 00:48:36;;;;;;;6.23;4.00;;;1.60;51.20;;;;;;5040678;28;20530;-85
2021/03/21 00:51:02;;;;;;;7.63;4.20;;;1.60;51.20;;;;;;5049398;28;20288;-85
2021/03/21 00:53:28;;;;;;;6.70;3.97;;;1.60;51.20;;;;;;5038406;28;20280;-85
2021/03/21 00:55:54;;;;;;;5.37;3.67;;;1.60;51.20;;;;;;5041804;28;20284;-85
2021/03/21 00:58:20;;;;;;;6.33;3.73;;;1.60;51.20;;;;;;5046425;28;20033;-85
2021/03/21 01:00:50;;;;;;;6.97;3.70;;;1.70;51.10;;;;;;5040683;28;20029;-85
2021/03/21 01:03:16;;;;;;;6.43;4.03;;;1.80;51.00;;;;;;5045810;28;20296;-85
2021/03/21 01:05:48;;;;;;;7.53;4.27;;;1.80;51.00;;;;;;5040406;28;20022;-85
2021/03/21 01:08:30;;;;;;;6.17;3.70;;;1.80;50.80;;;;;;5036304;28;20284;-85
2021/03/21 01:11:03;;;;;;;5.50;4.17;;;1.80;50.80;;;;;;5040523;28;20284;-84
2021/03/21 01:13:29;;;;;;;4.90;3.20;;;1.70;50.80;;;;;;5034841;28;20845;-84
2021/03/21 01:15:56;;;;;;;6.40;3.80;;;1.80;50.80;;;;;;5041476;28;20036;-85
2021/03/21 01:18:26;;;;;;;5.77;3.40;;;1.70;50.70;;;;;;5041442;28;20277;-84
2021/03/21 01:20:52;;;;;;;6.23;3.77;;;1.70;50.80;;;;;;5034247;28;20375;-85
2021/03/21 01:23:18;;;;;;;10.83;4.47;;;1.70;50.80;;;;;;5038614;28;20298;-84
2021/03/21 01:25:44;;;;;;;7.20;4.50;;;1.70;50.90;;;;;;5046881;28;20284;-85
2021/03/21 01:28:29;;;;;;;6.73;4.07;;;1.60;51.10;;;;;;5059727;28;20078;-85
2021/03/21 01:30:58;;;;;;;5.10;3.57;;;1.50;51.30;;;;;;5044333;28;20280;-85
2021/03/21 01:33:29;;;;;;;5.17;3.77;;;1.60;51.50;;;;;;5041369;28;20331;-85
2021/03/21 01:35:55;;;;;;;6.03;3.93;;;1.70;51.60;;;;;;5037430;28;20053;-85
2021/03/21 01:38:22;;;;;;;7.00;4.07;;;1.70;51.50;;;;;;5044872;28;20797;-85
2021/03/21 01:40:49;;;;;;;5.10;4.00;;;1.70;51.30;;;;;;5046401;28;20020;-85
2021/03/21 01:43:16;;;;;;;5.50;4.07;;;1.70;51.30;;;;;;5042766;28;20291;-85
2021/03/21 01:45:45;;;;;;;6.93;4.17;;;1.60;51.10;;;;;;5042270;28;20306;-85
2021/03/21 01:48:32;;;;;;;5.93;3.50;;;1.60;51.30;;;;;;5040638;28;20280;-85
2021/03/21 01:51:05;;;;;;;5.77;3.77;;;1.60;51.40;;;;;;5049166;28;20287;-85
2021/03/21 01:53:34;;;;;;;5.07;3.07;;;1.60;51.50;;;;;;5046318;28;20283;-85
2021/03/21 01:56:00;;;;;;;4.50;3.33;;;1.60;51.50;;;;;;5044636;28;20315;-85
2021/03/21 01:58:29;;;;;;;4.17;2.90;;;1.60;51.70;;;;;;5035113;28;20288;-85
2021/03/21 02:01:00;;;;;;;5.23;4.33;;;1.70;52.00;;;;;;5039037;28;20345;-84
2021/03/21 02:03:27;;;;;;;4.87;3.37;;;1.70;51.50;;;;;;5040340;28;20915;-84
2021/03/21 02:06:23;;;;;;;5.60;3.47;;;1.70;51.20;;;;;;5039948;28;20021;-84
2021/03/21 02:08:51;;;;;;;4.80;3.13;;;1.70;51.40;;;;;;5038254;28;20295;-85
2021/03/21 02:11:31;;;;;;;5.77;3.40;;;1.70;51.40;;;;;;5041197;28;20355;-85
2021/03/21 02:14:23;;;;;;;5.03;3.40;;;1.70;51.40;;;;;;5037965;28;20637;-85
2021/03/21 02:17:11;;;;;;;5.40;3.50;;;1.60;51.20;;;;;;5040965;28;20025;-84
2021/03/21 02:19:36;;;;;;;5.47;3.73;;;1.60;51.20;;;;;;5040239;28;20288;-85
2021/03/21 02:22:12;;;;;;;6.30;3.80;;;1.60;50.90;;;;;;5042648;28;20334;-85
2021/03/21 02:25:07;;;;;;;7.97;4.83;;;1.50;50.60;;;;;;5048468;28;20047;-85
2021/03/21 02:27:42;;;;;;;7.03;4.43;;;1.40;50.90;;;;;;5034029;28;20930;-85
2021/03/21 02:30:20;;;;;;;7.27;4.70;;;1.50;51.00;;;;;;5042233;28;20279;-85
2021/03/21 02:33:00;;;;;;;8.20;4.10;;;1.50;51.10;;;;;;5050818;28;20314;-85
2021/03/21 02:35:40;;;;;;;6.70;4.23;;;1.60;51.20;;;;;;5055346;28;20307;-85
2021/03/21 02:38:38;;;;;;;6.67;5.17;;;1.60;51.40;;;;;;5040818;28;20287;-85
2021/03/21 02:41:07;;;;;;;6.40;4.17;;;1.60;51.10;;;;;;5034383;28;20284;-85
2021/03/21 02:43:48;;;;;;;6.10;3.73;;;1.60;51.10;;;;;;5044694;28;20927;-85
2021/03/21 02:46:38;;;;;;;6.37;4.20;;;1.50;51.30;;;;;;5045084;28;20276;-85
2021/03/21 02:49:27;;;;;;;8.17;4.60;;;1.60;51.50;;;;;;5044314;28;20318;-85
2021/03/21 02:52:29;;;;;;;6.87;4.57;;;1.60;51.60;;;;;;5051696;28;20832;-85
2021/03/21 02:55:12;;;;;;;6.13;4.13;;;1.70;51.40;;;;;;5058314;28;20480;-85
2021/03/21 02:57:43;;;;;;;5.13;3.70;;;1.70;51.40;;;;;;5039455;28;20295;-85
2021/03/21 03:00:11;;;;;;;6.57;4.63;;;1.60;51.20;;;;;;5047810;28;20375;-85
2021/03/21 03:02:49;;;;;;;6.03;4.60;;;1.60;51.30;;;;;;5046569;28;20288;-85
2021/03/21 03:05:20;;;;;;;6.07;4.27;;;1.60;51.40;;;;;;5042107;28;20337;-85
2021/03/21 03:07:50;;;;;;;5.57;4.30;;;1.70;51.50;;;;;;5049109;28;20792;-85
2021/03/21 03:10:49;;;;;;;7.00;4.47;;;1.70;51.60;;;;;;5043409;28;20285;-85
2021/03/21 03:13:35;;;;;;;7.33;5.03;;;1.70;51.40;;;;;;5059105;28;20287;-85
2021/03/21 03:16:09;;;;;;;8.53;5.23;;;1.70;51.50;;;;;;5042004;28;20292;-85
2021/03/21 03:18:48;;;;;;;7.70;4.43;;;1.70;51.50;;;;;;5044148;28;20284;-85
2021/03/21 03:21:33;;;;;;;7.57;4.90;;;1.70;51.40;;;;;;5043903;28;20595;-85
2021/03/21 03:24:17;;;;;;;9.43;4.63;;;1.70;51.30;;;;;;5039092;28;20292;-85
2021/03/21 03:27:10;;;;;;;6.70;4.23;;;1.70;51.40;;;;;;5044536;28;20291;-85
2021/03/21 03:29:49;;;;;;;9.00;4.90;;;1.60;51.40;;;;;;5055750;28;20280;-85
2021/03/21 03:32:15;;;;;;;7.20;5.60;;;1.70;51.60;;;;;;5041408;28;20034;-85
2021/03/21 03:34:46;;;;;;;5.90;4.43;;;1.70;51.60;;;;;;5044951;28;20296;-85
2021/03/21 03:37:12;;;;;;;6.37;4.40;;;1.70;51.60;;;;;;5044961;28;20278;-85
2021/03/21 03:39:39;;;;;;;5.90;3.80;;;1.80;51.50;;;;;;5038113;28;20121;-85
2021/03/21 03:42:44;;;;;;;6.83;4.40;;;1.80;51.30;;;;;;5041523;28;20280;-85
2021/03/21 03:45:34;;;;;;;5.33;3.93;;;1.50;51.10;;;;;;5043793;28;20068;-85
2021/03/21 03:48:29;;;;;;;6.10;4.50;;;1.50;51.00;;;;;;5045922;28;20392;-84
2021/03/21 03:51:08;;;;;;;6.93;4.63;;;1.50;51.00;;;;;;5036738;28;20280;-85
2021/03/21 03:54:31;;;;;;;9.13;5.07;;;1.40;50.70;;;;;;5043832;28;20268;-85
2021/03/21 03:57:15;;;;;;;9.87;4.93;;;1.40;51.00;;;;;;5036134;28;20371;-85
2021/03/21 03:59:59;;;;;;;7.37;4.47;;;1.50;51.20;;;;;;5040010;28;20284;-85
2021/03/21 04:02:33;;;;;;;7.77;4.73;;;1.50;51.20;;;;;;5040972;28;20382;-85
2021/03/21 04:05:08;;;;;;;6.27;5.03;;;1.60;51.40;;;;;;5035770;28;20283;-85
2021/03/21 04:08:05;;;;;;;7.63;5.20;;;1.60;51.60;;;;;;5040483;28;20642;-85
2021/03/21 04:10:44;;;;;;;7.07;4.77;;;1.60;51.00;;;;;;5045080;28;20306;-84
2021/03/21 04:13:50;;;;;;;7.70;5.17;;;1.60;50.80;;;;;;5038535;28;20761;-84
2021/03/21 04:16:23;;;;;;;14.33;10.50;;;1.50;50.80;;;;;;5040676;28;20369;-85
2021/03/21 04:19:10;;;;;;;41.70;29.80;;;1.50;51.00;;;;;;5043515;28;20319;-85
2021/03/21 04:21:53;;;;;;;16.67;10.03;;;1.60;50.80;;;;;;5045241;28;20280;-85
2021/03/21 04:24:46;;;;;;;9.53;5.53;;;1.60;50.80;;;;;;5038366;28;20287;-85
2021/03/21 04:27:25;;;;;;;10.25;5.07;;;1.60;50.80;;;;;;5044664;28;20557;-85
2021/03/21 04:29:55;;;;;;;9.73;6.33;;;1.60;50.70;;;;;;5041105;28;20392;-85
2021/03/21 04:32:44;;;;;;;8.87;5.47;;;1.60;50.80;;;;;;5052318;28;21562;-85
2021/03/21 04:35:22;;;;;;;8.63;6.37;;;1.60;50.80;;;;;;5035465;28;20295;-85
2021/03/21 04:37:55;;;;;;;9.00;4.87;;;1.60;51.00;;;;;;5048349;28;21137;-85
2021/03/21 04:40:22;;;;;;;9.63;5.60;;;1.60;50.70;;;;;;5036998;28;20102;-85
2021/03/21 04:43:30;;;;;;;39.17;18.77;;;1.60;50.60;;;;;;5042252;28;20292;-85
2021/03/21 04:46:01;;;;;;;10.87;5.77;;;1.60;51.30;;;;;;5047062;28;20271;-85
2021/03/21 04:48:27;;;;;;;7.23;4.73;;;1.60;51.50;;;;;;5044449;28;20276;-84
2021/03/21 04:51:08;;;;;;;8.33;5.97;;;1.70;51.90;;;;;;5055814;28;20044;-85
2021/03/21 04:53:46;;;;;;;8.00;5.23;;;1.60;52.00;;;;;;5045380;28;20295;-85
2021/03/21 04:56:34;;;;;;;10.03;6.20;;;1.50;51.90;;;;;;5037300;28;20382;-85
2021/03/21 04:59:11;;;;;;;11.17;5.97;;;1.50;52.10;;;;;;5044752;28;20654;-85
2021/03/21 05:02:09;;;;;;;9.03;6.13;;;1.50;52.10;;;;;;5045638;28;20283;-85
2021/03/21 05:04:41;;;;;;;9.10;5.40;;;1.60;52.10;;;;;;5038968;28;20275;-85
2021/03/21 05:07:28;;;;;;;11.35;5.55;;;1.60;51.80;;;;;;5036668;28;20410;-85
2021/03/21 05:10:12;;;;;;;7.60;5.23;;;1.60;51.60;;;;;;5043752;28;20021;-85
2021/03/21 05:12:44;;;;;;;8.23;5.60;;;1.50;51.70;;;;;;5045953;28;20283;-85
2021/03/21 05:15:10;;;;;;;8.40;5.50;;;1.50;51.80;;;;;;5044894;28;20809;-85
2021/03/21 05:17:54;;;;;;;9.43;5.50;;;1.40;51.80;;;;;;5046065;28;20286;-85
2021/03/21 05:20:30;;;;;;;9.07;4.87;;;1.30;52.10;;;;;;5046498;28;20392;-85
2021/03/21 05:23:31;;;;;;;9.30;5.67;;;1.30;52.20;;;;;;5050094;28;20382;-85
2021/03/21 05:26:04;;;;;;;10.60;5.50;;;1.20;52.40;;;;;;5040112;28;20337;-85
2021/03/21 05:28:48;;;;;;;9.10;6.07;;;1.20;52.50;;;;;;5049699;28;20377;-85
2021/03/21 05:31:14;;;;;;;7.73;5.30;;;1.10;52.50;;;;;;5039650;28;20276;-85
2021/03/21 05:33:41;;;;;;;11.10;6.27;;;1.20;53.30;;;;;;5041632;28;20288;-85
2021/03/21 05:36:46;;;;;;;10.13;5.40;;;1.40;53.30;;;;;;5048907;28;20639;-85
2021/03/21 05:39:41;;;;;;;8.67;5.00;;;1.40;53.00;;;;;;5050935;28;20295;-85
2021/03/21 05:42:32;;;;;;;9.50;5.50;;;1.50;53.00;;;;;;5047692;28;20283;-85
2021/03/21 05:45:12;;;;;;;8.57;5.70;;;1.50;53.00;;;;;;5047952;28;20623;-85
2021/03/21 05:47:38;;;;;;;10.10;5.97;;;1.50;52.90;;;;;;5048968;28;20645;-84
2021/03/21 05:50:28;;;;;;;7.70;5.67;;;1.40;52.90;;;;;;5050362;28;20367;-85
2021/03/21 05:53:21;;;;;;;10.77;5.93;;;1.50;53.00;;;;;;5054089;28;20040;-85
2021/03/21 05:55:59;;;;;;;8.63;5.55;;;1.40;53.00;;;;;;5042323;28;20349;-85
2021/03/21 05:59:10;;;;;;;8.67;6.07;;;1.30;53.10;;;;;;5035395;28;20116;-85
2021/03/21 06:01:58;;;;;;;8.33;5.60;;;1.20;53.20;;;;;;5037863;28;20275;-85
2021/03/21 06:05:12;;;;;;;8.10;5.20;;;1.20;53.40;;;;;;5036987;28;20635;-85
2021/03/21 06:07:46;;;;;;;10.47;5.83;;;1.20;53.60;;;;;;5052480;28;20117;-85
2021/03/21 06:10:37;;;;;;;8.20;5.40;;;1.20;53.30;;;;;;5041101;28;20281;-85
2021/03/21 06:13:43;;;;;;;7.90;5.20;;;1.20;53.70;;;;;;5052667;28;20880;-85
2021/03/21 06:16:45;;;;;;;8.30;5.57;;;1.30;53.40;;;;;;5030779;28;20276;-85
2021/03/21 06:19:40;;;;;;;8.87;5.50;;;1.40;53.30;;;;;;5042932;28;20268;-85
2021/03/21 06:22:23;;;;;;;9.17;5.47;;;1.40;53.10;;;;;;5034383;28;20284;-85
2021/03/21 06:24:51;;;;;;;8.82;6.07;;;1.40;52.90;;;;;;5043104;28;20337;-85
2021/03/21 06:27:37;;;;;;;9.17;5.87;;;1.40;52.80;;;;;;5038869;28;20032;-85
2021/03/21 06:30:06;;;;;;;7.87;5.03;;;1.40;53.10;;;;;;5034172;28;20288;-85
2021/03/21 06:33:06;;;;;;;9.17;5.50;;;1.60;53.10;;;;;;5053059;28;20286;-85
2021/03/21 06:35:34;;;;;;;9.67;6.10;;;1.60;53.20;;;;;;5046184;28;20291;-85
2021/03/21 06:38:19;;;;;;;8.90;5.97;;;1.70;53.20;;;;;;5042785;28;20280;-86
2021/03/21 06:41:03;;;;;;;15.50;5.77;;;1.70;53.10;;;;;;5045406;28;20033;-86
2021/03/21 06:43:44;;;;;;;9.67;6.37;;;1.70;53.00;;;;;;5038497;28;20546;-85
2021/03/21 06:46:12;;;;;;;9.83;6.37;;;1.70;53.00;;;;;;5037858;28;20555;-85
2021/03/21 06:48:50;;;;;;;10.40;6.30;;;1.70;52.90;;;;;;5035942;28;20290;-85
2021/03/21 06:51:46;;;;;;;10.60;5.60;;;1.80;53.00;;;;;;5047764;28;20276;-85
2021/03/21 06:54:31;;;;;;;10.17;6.20;;;1.80;53.00;;;;;;5036217;28;20283;-85
2021/03/21 06:57:38;;;;;;;12.17;7.20;;;1.70;52.80;;;;;;5046782;28;20279;-85
2021/03/21 07:00:22;;;;;;;30.50;13.20;;;1.60;53.00;;;;;;5041912;28;20291;-85
2021/03/21 07:03:09;;;;;;;23.67;10.50;;;1.50;53.10;;;;;;5026261;28;20075;-85
2021/03/21 07:05:53;;;;;;;23.03;10.53;;;1.50;53.30;;;;;;5029094;28;20034;-85
2021/03/21 07:08:48;;;;;;;10.50;6.23;;;1.60;53.20;;;;;;5032947;28;20330;-85
2021/03/21 07:11:53;;;;;;;12.00;6.73;;;1.60;53.30;;;;;;5037077;28;20291;-85
2021/03/21 07:14:53;;;;;;;9.20;5.40;;;1.80;53.10;;;;;;5022182;28;20284;-85
2021/03/21 07:17:56;;;;;;;11.87;7.90;;;1.60;52.10;;;;;;5020160;28;20276;-85
2021/03/21 07:20:41;;;;;;;12.82;7.65;;;1.60;52.70;;;;;;5033169;28;20286;-85
2021/03/21 07:23:22;;;;;;;16.20;8.40;;;1.70;52.70;;;;;;5031066;28;20101;-85
2021/03/21 07:26:27;;;;;;;11.77;7.10;;;1.70;52.70;;;;;;5032905;28;20289;-85
2021/03/21 07:29:17;;;;;;;13.67;8.07;;;1.70;52.80;;;;;;5043764;28;20017;-85
2021/03/21 07:32:22;;;;;;;10.03;6.70;;;1.70;52.80;;;;;;5036172;28;20377;-85
2021/03/21 07:35:13;;;;;;;9.73;6.17;;;1.80;52.90;;;;;;5041340;28;20327;-85
2021/03/21 07:38:03;;;;;;;10.20;6.73;;;1.90;52.90;;;;;;5031775;28;20396;-85
2021/03/21 07:40:47;;;;;;;10.17;7.10;;;1.90;52.90;;;;;;5029436;28;20283;-85
2021/03/21 07:43:31;;;;;;;11.67;6.03;;;2.00;53.20;;;;;;5027048;28;20025;-85
2021/03/21 07:46:24;;;;;;;9.60;5.97;;;2.00;53.20;;;;;;5018007;28;20022;-85
2021/03/21 07:49:18;;;;;;;9.63;6.23;;;2.00;53.20;;;;;;5038057;28;20026;-85
2021/03/21 07:52:11;;;;;;;12.83;6.20;;;1.80;53.30;;;;;;5041393;28;20084;-85
2021/03/21 07:54:57;;;;;;;;;;;1.90;53.50;;;;;;5021315;28;20030;-86
2021/03/21 07:57:35;;;;;;;13.43;6.60;;;1.70;53.50;;;;;;5036421;28;20427;-85
2021/03/21 08:00:04;;;;;;;10.43;6.87;;;1.70;53.80;;;;;;5037216;28;20025;-86
2021/03/21 08:02:31;;;;;;;9.57;6.40;;;1.80;54.20;;;;;;5037324;28;20644;-85
2021/03/21 08:05:12;;;;;;;10.63;6.97;;;1.90;54.10;;;;;;5029032;28;20304;-85
2021/03/21 08:07:42;;;;;;;9.70;6.57;;;1.80;54.30;;;;;;5029772;28;20030;-85
2021/03/21 08:10:34;;;;;;;11.93;7.30;;;1.80;54.50;;;;;;5017791;28;20065;-86
2021/03/21 08:13:19;;;;;;;10.40;7.10;;;1.80;54.50;;;;;;5046011;28;20026;-86
2021/03/21 08:15:45;;;;;;;10.70;7.23;;;2.00;54.50;;;;;;5027829;28;20029;-86
2021/03/21 08:18:23;;;;;;;11.47;7.30;;;2.00;54.30;;;;;;5034533;28;20041;-86
2021/03/21 08:20:59;;;;;;;11.00;7.23;;;1.90;54.60;;;;;;5031304;28;20052;-85
2021/03/21 08:23:30;;;;;;;10.97;6.63;;;1.80;54.90;;;;;;5038069;28;20138;-86
2021/03/21 08:25:59;;;;;;;10.57;6.83;;;1.80;55.10;;;;;;5045705;28;20473;-85
2021/03/21 08:28:35;;;;;;;10.17;6.70;;;1.90;55.20;;;;;;5030735;28;20036;-85
2021/03/21 08:31:11;;;;;;;10.43;7.03;;;1.90;55.10;;;;;;5034221;28;20493;-86
2021/03/21 08:33:38;;;;;;;12.90;6.80;;;1.90;55.10;;;;;;5046866;28;20028;-85
2021/03/21 08:36:20;;;;;;;10.73;7.37;;;2.00;55.20;;;;;;5034082;28;20030;-85
2021/03/21 08:39:23;;;;;;;15.50;7.40;;;2.00;55.40;;;;;;5036234;28;20108;-85
2021/03/21 08:41:56;;;;;;;13.70;8.07;;;2.20;55.50;;;;;;5034659;28;20034;-85
2021/03/21 08:44:30;;;;;;;14.88;7.38;;;2.20;55.20;;;;;;5030003;28;20026;-85
2021/03/21 08:46:57;;;;;;;10.20;7.13;;;2.30;55.20;;;;;;5031856;28;20021;-85
2021/03/21 08:49:25;;;;;;;11.20;7.33;;;2.20;55.00;;;;;;5018960;28;20026;-86
2021/03/21 08:51:54;;;;;;;12.40;6.97;;;2.20;55.10;;;;;;5055789;28;20088;-85
2021/03/21 08:54:23;;;;;;;10.47;6.53;;;2.30;55.10;;;;;;5036043;28;20226;-85
2021/03/21 08:57:02;;;;;;;11.20;6.40;;;2.30;55.10;;;;;;5027117;28;20048;-85
2021/03/21 08:59:37;;;;;;;13.50;6.87;;;2.40;54.90;;;;;;5056539;28;20075;-85
2021/03/21 09:02:10;;;;;;;10.90;7.37;;;2.40;55.10;;;;;;5029477;28;20064;-85
2021/03/21 09:04:46;;;;;;;10.27;6.50;;;2.50;55.10;;;;;;5030817;28;20114;-85
2021/03/21 09:07:33;;;;;;;13.03;7.30;;;2.50;54.90;;;;;;5028746;28;20621;-85
2021/03/21 09:10:11;;;;;;;10.27;6.87;;;2.60;55.00;;;;;;5029990;28;20026;-85
2021/03/21 09:12:49;;;;;;;11.10;7.20;;;2.60;54.70;;;;;;5034970;28;20084;-85
2021/03/21 09:15:24;;;;;;;10.63;6.77;;;2.60;54.60;;;;;;5029238;28;20477;-85
2021/03/21 09:18:28;;;;;;;11.77;8.00;;;2.60;54.40;;;;;;5039990;28;20030;-85
2021/03/21 09:21:18;;;;;;;10.60;6.67;;;2.70;54.50;;;;;;5031016;28;20046;-86
2021/03/21 09:23:59;;;;;;;11.27;6.40;;;2.70;54.30;;;;;;5033329;28;20055;-85
2021/03/21 09:26:27;;;;;;;10.83;6.20;;;2.60;54.30;;;;;;5020998;28;20022;-85
2021/03/21 09:28:59;;;;;;;9.27;6.07;;;2.60;54.50;;;;;;5021925;28;20025;-85
2021/03/21 09:31:25;;;;;;;10.27;6.70;;;2.60;54.30;;;;;;5040537;28;20030;-86
2021/03/21 09:34:13;;;;;;;12.47;6.07;;;2.50;54.10;;;;;;5032445;28;20438;-85
2021/03/21 09:36:45;;;;;;;12.27;6.77;;;2.40;54.60;;;;;;5025537;28;20115;-86
2021/03/21 09:39:17;;;;;;;9.67;6.20;;;2.40;54.60;;;;;;5017337;28;20038;-85
2021/03/21 09:41:46;;;;;;;9.93;6.05;;;2.50;54.70;;;;;;5030154;28;20548;-85
2021/03/21 09:44:33;;;;;;;9.40;5.97;;;2.60;54.60;;;;;;5046879;28;20440;-85
2021/03/21 09:47:17;;;;;;;9.50;6.60;;;2.70;54.80;;;;;;5021731;28;20033;-85
2021/03/21 09:49:54;;;;;;;9.30;6.03;;;2.70;54.70;;;;;;5027001;28;20048;-86
2021/03/21 09:52:55;;;;;;;11.57;6.37;;;2.60;54.50;;;;;;5024793;28;20032;-85
2021/03/21 09:55:35;;;;;;;10.30;6.63;;;2.60;54.60;;;;;;5019732;28;20789;-85
2021/03/21 09:58:35;;;;;;;12.03;6.07;;;2.60;54.70;;;;;;5019773;28;20022;-85
2021/03/21 10:01:09;;;;;;;8.20;5.87;;;2.60;54.60;;;;;;5051113;28;20089;-85
2021/03/21 10:03:36;;;;;;;12.23;6.27;;;2.50;54.70;;;;;;5030842;28;20046;-85
2021/03/21 10:06:05;;;;;;;10.33;6.67;;;2.40;54.70;;;;;;5024146;28;20083;-85
2021/03/21 10:08:47;;;;;;;10.43;7.23;;;2.40;54.70;;;;;;5019313;28;20029;-85
2021/03/21 10:11:22;;;;;;;10.13;6.88;;;2.40;55.00;;;;;;5041019;28;20022;-85
2021/03/21 10:13:48;;;;;;;10.47;6.33;;;2.40;54.90;;;;;;5061345;28;20029;-85
2021/03/21 10:16:13;;;;;;;11.47;6.03;;;2.40;55.10;;;;;;5039588;28;20032;-85
2021/03/21 10:18:44;;;;;;;10.63;6.67;;;2.50;55.20;;;;;;5025049;28;20115;-85
2021/03/21 10:21:28;;;;;;;11.70;7.73;;;2.60;55.20;;;;;;5016022;28;20115;-85
2021/03/21 10:23:58;;;;;;;13.87;7.50;;;2.60;54.80;;;;;;5021914;28;20030;-85
2021/03/21 10:26:32;;;;;;;12.90;7.53;;;2.70;54.80;;;;;;5019972;28;20026;-86
2021/03/21 10:29:37;;;;;;;11.30;6.60;;;2.70;54.70;;;;;;5017593;28;20014;-85
2021/03/21 10:32:26;;;;;;;13.23;7.73;;;2.80;54.50;;;;;;5031338;28;20136;-85
2021/03/21 10:34:53;;;;;;;11.23;7.23;;;2.80;54.50;;;;;;5033812;28;20064;-85
2021/03/21 10:37:51;;;;;;;8.50;5.93;;;2.80;55.10;;;;;;5023333;28;20521;-85
2021/03/21 10:40:23;;;;;;;10.47;6.27;;;2.70;54.50;;;;;;5054074;28;20034;-85
2021/03/21 10:43:31;;;;;;;8.17;5.60;;;2.70;54.80;;;;;;5027734;28;20033;-85
2021/03/21 10:45:57;;;;;;;9.70;6.57;;;2.70;54.80;;;;;;5032019;28;20021;-85
2021/03/21 10:48:26;;;;;;;11.47;6.53;;;2.80;55.20;;;;;;5034016;28;20496;-85
2021/03/21 10:50:57;;;;;;;10.50;7.30;;;2.70;54.70;;;;;;5030281;28;20022;-85
2021/03/21 10:53:28;;;;;;;11.07;6.83;;;2.70;54.80;;;;;;5028078;28;20030;-85
2021/03/21 10:56:18;;;;;;;13.33;7.27;;;2.80;55.00;;;;;;5027098;28;20036;-85
2021/03/21 10:58:47;;;;;;;10.20;6.53;;;2.80;54.90;;;;;;5027651;28;20030;-85
2021/03/21 11:01:22;;;;;;;12.27;7.20;;;2.90;54.80;;;;;;5023290;28;20061;-85
2021/03/21 11:03:53;;;;;;;10.53;6.40;;;2.90;54.70;;;;;;5026105;28;20030;-85
2021/03/21 11:06:28;;;;;;;13.27;8.20;;;2.90;54.60;;;;;;5023653;28;20032;-85
2021/03/21 11:08:55;;;;;;;10.03;6.67;;;3.00;55.10;;;;;;5027066;28;20030;-85
2021/03/21 11:11:33;;;;;;;11.73;6.67;;;2.80;54.40;;;;;;5054444;28;20029;-85
2021/03/21 11:14:25;;;;;;;10.53;5.87;;;2.80;54.50;;;;;;5038580;28;20530;-85
2021/03/21 11:17:10;;;;;;;11.60;6.07;;;3.00;54.70;;;;;;5043317;28;20037;-84
2021/03/21 11:19:57;;;;;;;8.50;5.60;;;3.10;54.50;;;;;;5073043;28;20038;-85
2021/03/21 11:22:31;;;;;;;10.90;5.90;;;3.20;54.50;;;;;;5025635;28;20031;-84
2021/03/21 11:24:57;;;;;;;9.73;5.90;;;3.30;54.60;;;;;;5045621;28;20081;-84
2021/03/21 11:27:32;;;;;;;11.57;5.87;;;3.40;54.40;;;;;;5058106;28;20041;-85
2021/03/21 11:30:14;;;;;;;13.03;6.13;;;3.40;54.10;;;;;;5031510;28;20479;-85
2021/03/21 11:32:41;;;;;;;9.48;5.72;;;3.30;54.20;;;;;;5061346;28;20033;-85
2021/03/21 11:35:14;;;;;;;9.67;6.27;;;3.40;54.10;;;;;;5033054;28;20065;-85
2021/03/21 11:37:44;;;;;;;10.73;6.60;;;3.30;54.00;;;;;;5028460;28;20025;-85
2021/03/21 11:40:33;;;;;;;12.37;6.93;;;3.40;54.10;;;;;;5042522;28;20035;-85
2021/03/21 11:43:20;;;;;;;11.07;6.17;;;3.40;54.30;;;;;;5035741;28;20030;-86
2021/03/21 11:45:47;;;;;;;8.57;5.57;;;3.50;54.20;;;;;;5029236;28;20033;-86
2021/03/21 11:48:27;;;;;;;12.77;6.97;;;3.40;54.20;;;;;;5035658;28;20040;-86
2021/03/21 11:50:55;;;;;;;16.17;8.60;;;3.40;54.10;;;;;;5051875;28;20053;-85
2021/03/21 11:53:28;;;;;;;14.07;7.10;;;3.40;54.20;;;;;;5037538;28;20535;-85
2021/03/21 11:56:12;;;;;;;12.13;7.37;;;3.40;54.40;;;;;;5026189;28;20026;-85
2021/03/21 11:58:44;;;;;;;13.47;7.07;;;3.60;54.40;;;;;;5034965;28;22340;-85
2021/03/21 12:01:39;;;;;;;11.27;7.68;;;3.60;54.20;;;;;;5051095;28;20031;-85
2021/03/21 12:04:09;;;;;;;13.87;7.40;;;3.60;54.20;;;;;;5034058;28;20037;-85
2021/03/21 12:06:48;;;;;;;13.80;6.50;;;3.60;54.30;;;;;;5054037;28;20033;-85
2021/03/21 12:09:24;;;;;;;12.30;7.73;;;3.60;54.20;;;;;;5036998;28;20052;-84
2021/03/21 12:11:50;;;;;;;12.07;7.43;;;3.60;54.40;;;;;;5059786;28;20018;-84
2021/03/21 12:14:32;;;;;;;10.67;5.83;;;3.60;54.50;;;;;;5019812;28;20029;-84
2021/03/21 12:17:00;;;;;;;10.77;6.88;;;3.60;54.40;;;;;;5033656;28;20113;-85
2021/03/21 12:19:38;;;;;;;11.73;7.03;;;3.60;54.40;;;;;;5047388;28;20057;-85
2021/03/21 12:22:38;;;;;;;9.00;6.03;;;3.60;54.60;;;;;;5035014;28;20033;-85
2021/03/21 12:25:24;;;;;;;10.57;6.20;;;3.60;54.50;;;;;;4999075;28;20052;-84
2021/03/21 12:28:00;;;;;;;12.63;6.90;;;3.60;54.50;;;;;;5045280;28;20463;-84
2021/03/21 12:30:35;;;;;;;14.47;6.93;;;3.60;54.50;;;;;;5035319;28;20025;-85
2021/03/21 12:33:29;;;;;;;12.03;5.93;;;3.70;54.80;;;;;;5034520;28;20025;-85
2021/03/21 12:36:05;;;;;;;12.30;6.97;;;3.80;54.60;;;;;;5042347;28;20045;-85
2021/03/21 12:38:39;;;;;;;11.60;6.33;;;3.80;54.60;;;;;;5029569;28;20790;-85
2021/03/21 12:41:37;;;;;;;14.47;6.17;;;3.80;54.60;;;;;;5036787;28;20030;-85
2021/03/21 12:44:14;;;;;;;8.97;5.43;;;3.80;54.70;;;;;;5037170;28;20112;-85
2021/03/21 12:47:03;;;;;;;8.83;5.97;;;3.80;54.90;;;;;;5019621;28;20032;-86
2021/03/21 12:49:36;;;;;;;7.97;5.83;;;3.80;54.90;;;;;;5041164;28;20965;-85
2021/03/21 12:52:06;;;;;;;8.93;6.03;;;3.80;54.70;;;;;;5030619;28;20025;-85
2021/03/21 12:54:32;;;;;;;11.07;5.90;;;3.80;54.80;;;;;;5042102;28;20104;-84
2021/03/21 12:56:58;;;;;;;8.33;5.57;;;3.90;54.80;;;;;;5021302;28;20173;-85
2021/03/21 12:59:24;;;;;;;9.83;6.13;;;4.00;54.80;;;;;;5050003;28;20057;-85
2021/03/21 13:01:50;;;;;;;10.83;5.93;;;4.10;54.80;;;;;;5034180;28;20377;-85
2021/03/21 13:04:17;;;;;;;10.27;6.50;;;4.10;54.70;;;;;;5050042;28;20030;-85
2021/03/21 13:06:43;;;;;;;15.07;6.87;;;4.20;54.80;;;;;;5023211;28;20022;-84
2021/03/21 13:09:09;;;;;;;7.23;4.97;;;4.20;54.70;;;;;;5025538;28;20028;-84
2021/03/21 13:11:37;;;;;;;8.70;5.10;;;4.30;54.80;;;;;;5025733;28;20437;-84
2021/03/21 13:14:03;;;;;;;8.83;4.83;;;4.40;54.70;;;;;;5053134;28;20033;-84
2021/03/21 13:16:28;;;;;;;8.37;4.60;;;4.40;54.60;;;;;;5042095;28;20400;-84
2021/03/21 13:18:54;;;;;;;8.23;4.60;;;4.40;54.60;;;;;;5020868;28;20030;-84
2021/03/21 13:21:22;;;;;;;7.23;4.90;;;4.30;54.50;;;;;;5050928;28;20040;-84
2021/03/21 13:23:48;;;;;;;14.63;6.23;;;4.30;54.40;;;;;;5033152;28;20503;-84
2021/03/21 13:26:13;;;;;;;10.23;5.70;;;4.30;54.60;;;;;;5025650;28;20025;-84
2021/03/21 13:28:39;;;;;;;11.47;5.53;;;4.20;54.60;;;;;;5025119;28;20468;-84
2021/03/21 13:31:05;;;;;;;10.27;5.33;;;4.20;54.90;;;;;;5032662;28;20018;-84
2021/03/21 13:33:34;;;;;;;7.43;5.13;;;4.30;55.00;;;;;;5047554;28;20049;-84
2021/03/21 13:36:00;;;;;;;8.73;5.40;;;4.40;55.20;;;;;;5040974;28;20556;-85
2021/03/21 13:38:28;;;;;;;9.87;5.83;;;4.40;55.10;;;;;;5034016;28;20021;-85
2021/03/21 13:40:57;;;;;;;16.30;7.40;;;4.30;55.30;;;;;;5040004;28;20431;-84
2021/03/21 13:43:24;;;;;;;13.83;7.47;;;4.30;55.60;;;;;;5059153;28;20033;-84
2021/03/21 13:45:52;;;;;;;11.83;6.10;;;4.30;55.40;;;;;;5027626;28;20029;-84
2021/03/21 13:48:18;;;;;;;28.30;13.17;;;4.30;55.60;;;;;;5018050;28;20061;-84
2021/03/21 13:50:45;;;;;;;16.40;8.67;;;4.20;55.80;;;;;;5033905;28;20060;-84